Weather observations for the past three days for
Charlevoix, Charlevoix Municipal Airport
Imperial (Metric)
Date Time (edt) Wind (mph) Vis. (mi.) Weather Sky Cond. Temperature (ºF) Relative Humidity Wind Chill (°F) Heat Index (°F) Pressure Precipitation (in)
Air Dwpt 6 hour altimeter (in) sea level (mb) 1 hr 3 hr 6 hr
Max. Min.
10 10:35 W 13 G 18 10.00 Fair CLR 46.4 33.8 62% 41 30.01 0.0
10 10:15 W 13 10.00 Fair CLR 46.4 32 57% 41 30 0.0
10 09:55 W 10 10.00 Fair CLR 44.6 32 61% 40 30 0.0
10 09:35 W 8 10.00 Fair CLR 44.6 32 61% 41 30 0.0
10 09:15 W 9 10.00 Fair CLR 44.6 32 61% 40 30 0.0
10 08:55 W 8 10.00 Fair CLR 42.8 33.8 71% 39 30 0.0
10 08:35 W 13 10.00 Fair CLR 42.8 32 66% 37 29.99 0.0
10 08:15 W 9 10.00 Fair CLR 41 32 70% 36 29.98 0.0
10 07:55 W 8 10.00 Partly Cloudy SCT110 41 33.8 40.5 34.2 76% 36 29.98 0.0
10 07:35 SW 7 10.00 Mostly Cloudy BKN110 39.2 33.8 81% 35 29.97 0.0
10 07:15 SW 6 10.00 Overcast OVC110 37.4 32 81% 33 29.96 0.0
10 06:55 W 7 10.00 Mostly Cloudy BKN110 39.2 32 75% 35 29.95 0.0
10 06:35 W 9 10.00 A Few Clouds FEW110 37.4 32 81% 31 29.94 0.0
10 06:15 W 8 10.00 Fair CLR 35.6 32 87% 30 29.94 0.0
10 05:55 W 8 10.00 Fair CLR 35.6 32 87% 30 29.93 0.0
10 05:35 W 6 10.00 Fair CLR 35.6 32 87% 31 29.92 0.0
10 05:15 W 3 10.00 Fair CLR 35.6 32 87% 29.92 0.0
10 04:55 W 5 10.00 Fair CLR 35.6 32 87% 32 29.91 0.0
10 04:35 W 7 10.00 Mostly Cloudy BKN100 37.4 32 81% 33 29.9 0.0
10 04:15 W 9 10.00 Partly Cloudy SCT100 37.4 33.8 87% 31 29.9 0.0
10 03:55 W 12 10.00 Fair CLR 37.4 33.8 87% 30 29.9 0.0
10 03:35 SW 8 10.00 A Few Clouds FEW100 37.4 32 81% 32 29.89 0.0
10 03:15 W 5 10.00 Fair CLR 35.6 32 87% 32 29.88 0.0
10 02:55 W 7 10.00 Fair CLR 35.6 32 87% 31 29.87 0.0
10 02:35 SW 6 10.00 Fair CLR 35.6 32 87% 31 29.87 0.0
10 02:15 W 7 10.00 Fair CLR 35.6 32 87% 31 29.86 0.0
10 01:55 W 6 10.00 Fair CLR 35.6 30.2 45.3 35.1 81% 31 29.86 0.0
10 01:35 W 5 10.00 Fair CLR 37.4 32 81% 34 29.86 0.0
10 01:15 W 5 10.00 Fair CLR 35.6 30.2 81% 32 29.85 0.0
10 00:55 W 5 10.00 Fair CLR 37.4 30.2 75% 34 29.85 0.0
10 00:35 W 7 10.00 Fair CLR 37.4 30.2 75% 33 29.85 0.0
10 00:15 W 8 10.00 Fair CLR 39.2 30.2 70% 34 29.84 0.0
09 23:55 NW 8 10.00 Partly Cloudy SCT085 41 30.2 66% 36 29.84 0.0
09 23:35 NW 8 10.00 Overcast OVC085 41 32 70% 36 29.83 0.0
09 23:15 NW 8 10.00 Overcast OVC085 41 32 70% 36 29.83 0.0
09 22:55 NW 10 10.00 Overcast OVC085 41 32 70% 35 29.82 0.0
09 22:35 NW 8 10.00 Mostly Cloudy BKN085 41 32 70% 36 29.82 0.0
09 22:15 NW 9 10.00 Partly Cloudy SCT085 41 32 70% 36 29.81 0.0
09 21:55 NW 7 10.00 Mostly Cloudy BKN085 41 32 70% 37 29.81 0.0
09 21:35 NW 6 10.00 A Few Clouds FEW085 41 32 70% 38 29.8 0.0
09 21:15 NW 6 10.00 Fair CLR 41 32 70% 38 29.79 0.0
09 20:55 NW 5 10.00 Fair CLR 41 33.8 76% 38 29.78 0.0
09 20:35 NW 6 10.00 Partly Cloudy SCT080 42.8 33.8 71% 40 29.76 0.0
09 20:15 NW 7 10.00 Mostly Cloudy BKN080 42.8 33.8 71% 39 29.75 0.0
09 19:55 NW 9 10.00 Overcast OVC070 44.6 33.8 57.2 44.1 66% 40 29.74 0.0
09 19:35 NW 10 G 20 10.00 Overcast BKN070 OVC090 44.6 33.8 66% 40 29.73 0.0
09 19:15 NW 12 10.00 Mostly Cloudy FEW070 BKN090 44.6 33.8 66% 39 29.71 0.0
09 18:55 NW 15 10.00 Partly Cloudy SCT090 46.4 33.8 62% 41 29.7 0.0
09 18:35 NW 10 10.00 A Few Clouds FEW080 46.4 32 57% 42 29.68 0.0
09 18:15 NW 12 10.00 Partly Cloudy SCT080 48.2 32 54% 44 29.67 0.0
09 17:55 NW 13 10.00 A Few Clouds FEW080 53.6 26.6 35% 29.66 0.0
09 17:35 NW 13 10.00 Fair CLR 51.8 32 47% 29.65 0.0
09 17:15 NW 10 10.00 Partly Cloudy FEW045 FEW060 SCT090 51.8 32 47% 29.63 0.0
09 16:55 W 12 10.00 Overcast SCT060 BKN070 OVC090 50 32 50% 46 29.62 0.0
09 16:35 W 15 10.00 Overcast SCT060 OVC075 48.2 33.8 58% 43 29.62 0.0
09 16:15 W 18 10.00 Overcast OVC070 51.8 32 47% 29.61 0.0
09 15:55 W 16 10.00 Overcast OVC070 51.8 32 47% 29.59 0.0
09 15:35 W 15 10.00 Overcast FEW060 OVC080 51.8 30.2 44% 29.58 0.0
09 15:15 W 20 G 24 10.00 Overcast BKN080 OVC090 51.8 32 47% 29.58 0.0
09 14:55 W 21 G 29 10.00 Overcast and Breezy FEW060 FEW070 OVC090 55.4 32 41% 29.56 0.0
09 14:35 W 17 G 25 10.00 Overcast OVC090 57.2 32 39% 29.55 0.0
09 14:15 W 17 G 24 10.00 Overcast OVC090 53.6 32 44% 29.55 0.0
09 13:55 W 22 G 26 10.00 Overcast and Breezy OVC090 51.8 30.2 55.9 48.4 44% 29.54 0.0
09 13:35 W 21 G 26 10.00 Overcast and Breezy OVC080 53.6 32 44% 29.53 0.0
09 13:15 W 18 G 22 10.00 Overcast OVC080 53.6 33.8 47% 29.53 0.0
09 12:55 W 16 G 22 10.00 Overcast OVC080 53.6 33.8 47% 29.52 0.0
09 12:35 W 15 10.00 Mostly Cloudy BKN080 BKN090 51.8 35.6 54% 29.52 0.0
09 12:15 W 21 G 26 10.00 Mostly Cloudy and Breezy FEW075 BKN100 51.8 35.6 54% 29.52 0.0
09 11:55 W 18 10.00 Partly Cloudy SCT110 50 37.4 62% 44 29.51 0.0
09 11:35 W 14 G 22 10.00 A Few Clouds FEW080 50 37.4 62% 45 29.5 0.0
09 11:15 W 15 G 24 10.00 Mostly Cloudy BKN070 BKN090 48.2 37.4 66% 43 29.49 0.0
09 10:55 W 17 G 22 10.00 Mostly Cloudy FEW070 BKN090 48.2 37.4 66% 42 29.48 0.0
09 10:35 W 18 G 23 10.00 Mostly Cloudy BKN100 50 41 71% 44 29.47 0.0
09 10:15 W 21 G 28 10.00 Overcast and Breezy OVC100 51.8 41 67% 29.46 0.0
09 09:55 W 13 G 23 10.00 Overcast OVC100 55.4 42.8 63% 29.45 0.0
09 09:35 SW 10 10.00 Overcast OVC100 55.4 44.6 67% 29.45 0.0
09 09:15 SW 14 10.00 Mostly Cloudy BKN100 BKN120 55.4 42.8 63% 29.44 0.0
09 08:55 SW 15 G 22 10.00 A Few Clouds FEW110 55.4 42.8 63% 29.44 0.0
09 08:35 SW 12 G 20 10.00 A Few Clouds FEW110 55.4 42.8 63% 29.44 0.0
09 08:15 SW 14 G 23 10.00 A Few Clouds FEW120 55.4 42.8 63% 29.44 0.0
09 07:55 S 13 G 26 10.00 A Few Clouds FEW120 53.6 41 54.9 51.6 63% 29.44 0.0
09 07:35 S 13 G 22 10.00 Fair CLR 53.6 39.2 58% 29.44 0.0
09 07:15 S 13 10.00 Fair CLR 53.6 37.4 54% 29.44 0.0
09 06:55 S 9 10.00 Fair CLR 53.6 35.6 51% 29.44 0.0
09 06:35 S 10 10.00 Fair CLR 53.6 33.8 47% 29.46 0.0
09 06:15 S 9 10.00 Partly Cloudy SCT110 53.6 33.8 47% 29.46 0.0
09 05:55 S 10 10.00 Partly Cloudy SCT110 53.6 33.8 47% 29.47 0.0
09 05:35 S 13 G 20 10.00 A Few Clouds FEW110 53.6 32 44% 29.48 0.0
09 05:15 S 12 10.00 Mostly Cloudy BKN100 BKN120 55.4 30.2 38% 29.48 0.0
09 04:55 S 10 G 17 10.00 Overcast BKN100 OVC120 55.4 28.4 36% 29.5 0.0
09 04:35 S 13 G 18 10.00 Partly Cloudy SCT120 55.4 26.6 33% 29.5 0.0
09 04:15 S 9 10.00 Fair CLR 53.6 26.6 35% 29.5 0.0
09 03:55 S 9 10.00 Fair CLR 53.6 26.6 35% 29.51 0.0
09 03:35 S 8 10.00 A Few Clouds FEW100 51.8 28.4 41% 29.52 0.0
09 03:15 S 8 10.00 Mostly Cloudy BKN110 51.8 28.4 41% 29.53 0.0
09 02:55 S 8 10.00 Partly Cloudy SCT110 53.6 28.4 38% 29.54 0.0
09 02:35 S 7 10.00 Overcast OVC095 53.6 28.4 38% 29.55 0.0
09 02:15 S 8 10.00 Mostly Cloudy BKN095 BKN120 53.6 28.4 38% 29.56 0.0
09 01:55 S 7 10.00 Mostly Cloudy BKN095 53.6 28.4 55.2 46.9 38% 29.57 0.0
09 01:35 S 7 10.00 Overcast OVC095 53.6 28.4 38% 29.58 0.0
09 01:15 S 7 10.00 Overcast OVC095 53.6 28.4 38% 29.59 0.0
09 00:55 S 7 10.00 Overcast FEW070 OVC095 55.4 28.4 36% 29.6 0.0
09 00:35 S 8 10.00 Overcast OVC095 53.6 28.4 38% 29.61 0.0
09 00:15 S 6 10.00 Overcast OVC095 53.6 30.2 41% 29.62 0.0
08 23:55 S 6 10.00 Overcast OVC095 50 33.8 54% 48 29.62 0.0
08 23:35 SE 3 10.00 Overcast OVC095 50 33.8 54% 29.63 0.0
08 23:15 SE 3 10.00 Overcast OVC095 48.2 33.8 58% 29.64 0.0
08 22:55 SE 5 10.00 Overcast OVC095 48.2 33.8 58% 47 29.64 0.0
08 22:35 SE 5 10.00 Overcast OVC095 48.2 32 54% 47 29.65 0.0
08 22:15 SE 5 10.00 Overcast OVC095 48.2 32 54% 47 29.65 0.0
08 21:55 SE 5 10.00 Mostly Cloudy BKN095 46.4 32 57% 45 29.65 0.0
08 21:35 SE 5 10.00 Mostly Cloudy BKN095 48.2 32 54% 47 29.65 0.0
08 21:15 SE 6 10.00 Mostly Cloudy BKN095 50 30.2 47% 48 29.65 0.0
08 20:55 SE 6 10.00 Overcast OVC095 50 30.2 47% 48 29.65 0.0
08 20:35 SE 6 10.00 Overcast OVC095 50 30.2 47% 48 29.65 0.0
08 20:15 Calm 10.00 Overcast OVC095 50 30.2 47% 29.66 0.0
08 19:55 N 3 10.00 Overcast BKN085 OVC100 48.2 30.2 54.3 48.2 50% 29.66 0.0
08 19:35 N 6 10.00 Overcast OVC100 48.2 30.2 50% 46 29.67 0.0
08 19:15 N 5 10.00 Overcast OVC100 48.2 30.2 50% 47 29.67 0.0
08 18:55 N 7 10.00 Overcast OVC100 48.2 30.2 50% 46 29.67 0.0
08 18:35 N 6 10.00 Mostly Cloudy BKN100 50 32 50% 48 29.67 0.0
08 18:15 N 6 10.00 A Few Clouds FEW100 51.8 32 47% 29.68 0.0
08 17:55 NW 8 10.00 Fair CLR 53.6 32 44% 29.68 0.0
08 17:35 W 8 10.00 Fair CLR 53.6 32 44% 29.69 0.0
08 17:15 NW 8 10.00 Fair CLR 51.8 32 47% 29.69 0.0
08 16:55 W 8 10.00 Fair CLR 53.6 32 44% 29.7 0.0
08 16:35 W 8 10.00 Fair CLR 51.8 35.6 54% 29.71 0.0
08 16:15 NW 7 10.00 Fair CLR 53.6 33.8 47% 29.72 0.0
08 15:55 NW 9 10.00 Fair CLR 51.8 35.6 54% 29.72 0.0
08 15:35 NW 8 10.00 Fair CLR 51.8 37.4 58% 29.73 0.0
08 15:15 W 10 10.00 Fair CLR 51.8 37.4 58% 29.74 0.0
08 14:55 W 12 10.00 Fair CLR 51.8 35.6 54% 29.74 0.0
08 14:35 W 15 10.00 Fair CLR 51.8 35.6 54% 29.74 0.0
08 14:15 W 17 G 22 10.00 Fair CLR 53.6 33.8 47% 29.74 0.0
08 13:55 W 17 G 23 10.00 Fair CLR 53.6 33.8 54 37.2 47% 29.75 0.0
08 13:35 W 18 10.00 Fair CLR 51.8 32 47% 29.75 0.0
08 13:15 W 16 G 22 10.00 Fair CLR 53.6 33.8 47% 29.76 0.0
08 12:55 W 15 10.00 Fair CLR 53.6 32 44% 29.76 0.0
08 12:35 W 16 10.00 Fair CLR 53.6 32 44% 29.77 0.0
08 12:15 W 13 G 21 10.00 Partly Cloudy SCT085 53.6 32 44% 29.77 0.0
08 11:55 SW 14 10.00 Mostly Cloudy BKN085 51.8 30.2 44% 29.78 0.0
08 11:35 W 17 G 22 10.00 Overcast OVC085 51.8 32 47% 29.78 0.0
08 11:15 W 14 10.00 Overcast OVC085 50 33.8 54% 45 29.78 0.0
08 10:55 W 13 G 20 10.00 Overcast OVC085 50 33.8 54% 46 29.78 0.0
08 10:35 SW 16 10.00 Mostly Cloudy BKN085 50 33.8 54% 45 29.78 0.0
08 10:15 SW 15 10.00 Mostly Cloudy BKN085 48.2 33.8 58% 43 29.78 0.0
08 09:55 SW 12 G 20 10.00 Overcast OVC085 48.2 32 54% 44 29.79 0.0
08 09:35 SW 10 G 20 10.00 Mostly Cloudy BKN085 46.4 33.8 62% 42 29.79 0.0
08 09:15 Vrbl 7 10.00 Partly Cloudy SCT095 46.4 33.8 62% 43 29.79 0.0
08 08:55 S 7 10.00 Mostly Cloudy FEW075 BKN095 44.6 33.8 66% 41 29.8 0.0
08 08:35 S 7 10.00 Mostly Cloudy BKN095 42.8 33.8 71% 39 29.8 0.0
08 08:15 S 5 10.00 Mostly Cloudy FEW060 SCT080 BKN095 39.2 33.8 81% 36 29.8 0.0
08 07:55 SE 3 10.00 Overcast FEW060 BKN070 OVC095 37.4 32 38.7 34.5 81% 29.8 0.0
08 07:35 SE 3 10.00 Overcast BKN065 OVC080 37.4 32 81% 29.8 0.0
08 07:15 SE 3 10.00 Mostly Cloudy BKN080 BKN100 35.6 32 87% 29.8 0.0
08 06:55 S 3 10.00 Partly Cloudy FEW065 SCT090 35.6 32 87% 29.8 0.0
08 06:35 S 6 10.00 Partly Cloudy SCT065 SCT100 35.6 32 87% 31 29.8 0.0
08 06:15 Vrbl 2 10.00 Fair CLR 35.6 32 87% 29.8 0.0
08 05:55 SW 3 10.00 Partly Cloudy FEW070 SCT100 37.4 32 81% 29.8 0.0
08 05:35 SW 6 10.00 Overcast SCT070 OVC100 37.4 33.8 87% 33 29.8 0.0
08 05:15 SW 7 10.00 Overcast SCT070 OVC100 37.4 33.8 87% 33 29.81 0.0
08 04:55 SW 8 10.00 Overcast SCT070 OVC100 39.2 33.8 81% 34 29.81 0.0
08 04:35 SW 9 10.00 Overcast BKN070 OVC090 37.4 33.8 87% 31 29.81 0.0
08 04:15 SW 5 10.00 Mostly Cloudy BKN070 BKN090 37.4 33.8 87% 34 29.82 0.0
08 03:55 S 6 10.00 Mostly Cloudy SCT080 BKN090 37.4 33.8 87% 33 29.81 0.0
08 03:35 SW 6 10.00 Overcast FEW075 OVC090 37.4 32 81% 33 29.82 0.0
08 03:15 SW 7 10.00 Overcast FEW075 SCT090 OVC110 37.4 32 81% 33 29.82 0.0
08 02:55 SW 6 10.00 Partly Cloudy FEW070 SCT110 37.4 32 81% 33 29.83 0.0
08 02:35 W 7 10.00 Mostly Cloudy SCT070 SCT080 BKN100 37.4 33.8 87% 33 29.84 0.0
08 02:15 NW 8 10.00 Mostly Cloudy FEW065 SCT075 BKN100 37.4 32 81% 32 29.85 0.0
08 01:55 N 10 10.00 Mostly Cloudy SCT070 BKN090 35.6 28.4 43.5 36.1 75% 29 29.85 0.0
08 01:35 S 5 10.00 A Few Clouds FEW090 37.4 28.4 70% 34 29.84 0.0
08 01:15 SW 5 10.00 Fair CLR 37.4 28.4 70% 34 29.84 0.0
08 00:55 W 6 10.00 Fair CLR 37.4 28.4 70% 33 29.85 0.0
08 00:35 SW 6 10.00 Fair CLR 39.2 28.4 65% 36 29.84 0.0
08 00:15 S 5 10.00 Fair CLR 39.2 28.4 65% 36 29.84 0.0
07 23:55 S 5 10.00 Fair CLR 39.2 30.2 70% 36 29.84 0.0
07 23:35 S 5 10.00 Partly Cloudy SCT110 39.2 30.2 70% 36 29.85 0.0
07 23:15 SW 3 10.00 Mostly Cloudy BKN110 41 30.2 66% 29.85 0.0
07 22:55 SW 5 10.00 Partly Cloudy SCT110 41 28.4 61% 38 29.84 0.0
07 22:35 SW 3 10.00 Overcast OVC100 41 30.2 66% 29.84 0.0
07 22:15 S 3 10.00 Overcast OVC100 41 30.2 66% 29.84 0.0
07 21:55 SW 3 10.00 Overcast OVC100 41 30.2 66% 29.84 0.0
07 21:35 W 6 10.00 Overcast OVC100 41 32 70% 38 29.84 0.0
07 21:15 W 5 10.00 Overcast OVC100 41 32 70% 38 29.84 0.0
07 20:55 W 7 10.00 Overcast OVC100 42.8 30.2 61% 39 29.84 0.0
07 20:35 W 7 10.00 Overcast OVC100 42.8 30.2 61% 39 29.84 0.0
07 20:15 W 8 10.00 Overcast OVC100 42.8 30.2 61% 39 29.83 0.0
07 19:55 W 9 10.00 Overcast OVC100 42.8 28.4 48.2 43.3 57% 38 29.83 0.0
07 19:35 W 12 G 16 10.00 Overcast OVC090 44.6 26.6 49% 39 29.83 0.0
07 19:15 W 9 10.00 Overcast OVC090 44.6 26.6 49% 40 29.83 0.0
07 18:55 W 14 10.00 Overcast OVC090 44.6 24.8 46% 39 29.83 0.0
07 18:35 W 10 10.00 Overcast OVC090 44.6 26.6 49% 40 29.84 0.0
07 18:15 W 12 10.00 Overcast OVC090 44.6 24.8 46% 39 29.84 0.0
07 17:55 SW 9 10.00 Overcast OVC090 46.4 26.6 46% 42 29.84 0.0
07 17:35 W 12 10.00 Overcast OVC090 46.4 26.6 46% 42 29.84 0.0
07 17:15 W 14 10.00 Overcast OVC090 46.4 26.6 46% 41 29.84 0.0
07 16:55 W 13 10.00 Overcast OVC090 46.4 28.4 50% 41 29.84 0.0
07 16:35 W 14 10.00 Overcast OVC090 46.4 28.4 50% 41 29.84 0.0
07 16:15 W 14 10.00 Overcast OVC090 48.2 28.4 46% 43 29.84 0.0
07 15:55 W 13 10.00 Overcast OVC080 48.2 26.6 43% 43 29.85 0.0
07 15:35 W 13 G 18 10.00 Overcast OVC080 48.2 26.6 43% 43 29.85 0.0
07 15:15 W 13 10.00 Overcast OVC080 46.4 28.4 50% 41 29.85 0.0
07 14:55 W 15 G 18 10.00 Overcast OVC080 46.4 26.6 46% 41 29.85 0.0
07 14:35 W 12 G 20 10.00 Overcast OVC080 46.4 28.4 50% 42 29.86 0.0
07 14:15 W 13 10.00 Overcast OVC080 46.4 30.2 53% 41 29.86 0.0
07 13:55 W 14 10.00 Overcast OVC080 46.4 30.2 48.2 37.4 53% 41 29.87 0.0
07 13:35 W 15 10.00 Overcast FEW050 OVC080 46.4 30.2 53% 41 29.87 0.0
07 13:15 W 14 G 21 10.00 Overcast FEW050 OVC080 46.4 28.4 50% 41 29.88 0.0
07 12:55 W 14 G 18 10.00 Overcast OVC080 46.4 28.4 50% 41 29.88 0.0
07 12:35 W 14 10.00 Overcast OVC080 46.4 28.4 50% 41 29.89 0.0
07 12:15 W 14 10.00 Overcast OVC080 46.4 28.4 50% 41 29.89 0.0
07 11:55 W 13 10.00 Overcast OVC080 46.4 30.2 53% 41 29.89 0.0
07 11:35 W 15 10.00 Overcast FEW050 OVC080 44.6 30.2 57% 38 29.9 0.0
07 11:15 W 10 10.00 Overcast OVC080 44.6 30.2 57% 40 29.9 0.0
07 10:55 W 10 10.00 Overcast OVC070 44.6 30.2 57% 40 29.9 0.0
Date Time (edt) Wind (mph) Vis. (mi.) Weather Sky Cond. Air Dwpt Max. Min. Relative Humidity Wind Chill (°F) Heat Index (°F) altimeter (in) sea level (mb) 1 hr 3 hr 6 hr
6 hour
Temperature (ºF) Pressure Precipitation (in)